Time;durP1;ratioP1;P1;durP2;ratioP2;P2;SDS_P1;SDS_P2;PMS_P1;PMS_P2;Temp;Humidity;BMP_temperature;BMP_pressure;BME280_temperature;BME280_humidity;BME280_pressure;Samples;Min_cycle;Max_cycle;Signal;HPM_P1;HPM_P2
2022/09/19 00:01:33;;;;;;;16.60;3.22;;;10.30;88.40;;;;;;5115270;27;20012;-38
2022/09/19 00:04:04;;;;;;;12.73;2.17;;;10.30;88.40;;;;;;5115330;28;20019;-38
2022/09/19 00:06:32;;;;;;;11.90;1.63;;;10.30;88.30;;;;;;5115527;28;20107;-38
2022/09/19 00:08:58;;;;;;;8.38;2.53;;;10.40;88.30;;;;;;5115178;28;20031;-38
2022/09/19 00:11:25;;;;;;;12.52;1.88;;;10.40;88.10;;;;;;5115191;28;20020;-38
2022/09/19 00:13:54;;;;;;;11.77;2.22;;;10.40;88.10;;;;;;5115361;28;20027;-38
2022/09/19 00:16:29;;;;;;;18.70;2.65;;;10.50;88.10;;;;;;5113754;28;20072;-38
2022/09/19 00:18:58;;;;;;;8.27;3.13;;;10.50;87.90;;;;;;5115471;28;20416;-38
2022/09/19 00:21:27;;;;;;;10.02;1.85;;;10.50;87.70;;;;;;5113553;28;20019;-38
2022/09/19 00:26:39;;;;;;;9.07;1.98;;;10.50;87.50;;;;;;5114058;28;20437;-38
2022/09/19 00:29:07;;;;;;;6.35;1.48;;;10.50;87.50;;;;;;5115047;28;20027;-38
2022/09/19 00:31:33;;;;;;;9.75;2.42;;;10.50;87.70;;;;;;5114830;28;20111;-39
2022/09/19 00:34:00;;;;;;;11.48;1.52;;;10.50;87.40;;;;;;5114543;28;20024;-38
2022/09/19 00:36:26;;;;;;;16.85;1.98;;;10.40;87.50;;;;;;5114846;28;20160;-38
2022/09/19 00:38:51;;;;;;;8.32;1.50;;;10.40;87.50;;;;;;5114723;28;20026;-38
2022/09/19 00:41:25;;;;;;;12.68;2.58;;;10.50;87.50;;;;;;5114885;28;20020;-38
2022/09/19 00:43:56;;;;;;;13.30;1.85;;;10.50;87.50;;;;;;5115058;28;20028;-38
2022/09/19 00:46:24;;;;;;;15.50;2.28;;;10.50;87.50;;;;;;5114500;28;20488;-38
2022/09/19 00:48:57;;;;;;;14.68;3.03;;;10.50;87.60;;;;;;5114729;28;20153;-38
2022/09/19 00:51:31;;;;;;;9.05;1.60;;;10.50;87.70;;;;;;5114348;28;20069;-40
2022/09/19 00:54:01;;;;;;;12.57;1.67;;;10.40;87.80;;;;;;5114602;28;20506;-39
2022/09/19 00:56:28;;;;;;;10.43;1.58;;;10.30;87.90;;;;;;5114656;28;20527;-40
2022/09/19 00:58:56;;;;;;;13.13;3.15;;;10.30;88.00;;;;;;5114678;28;20027;-38
2022/09/19 01:01:24;;;;;;;10.60;1.52;;;10.30;88.10;;;;;;5112470;28;20051;-38
2022/09/19 01:03:52;;;;;;;6.50;1.70;;;10.30;88.20;;;;;;5114166;28;20023;-38
2022/09/19 01:06:32;;;;;;;18.55;2.90;;;10.30;88.10;;;;;;5112948;28;20140;-38
2022/09/19 01:09:21;;;;;;;15.50;3.33;;;10.30;88.20;;;;;;5114479;28;20027;-38
2022/09/19 01:12:03;;;;;;;10.80;2.45;;;10.30;88.30;;;;;;5114287;28;20110;-38
2022/09/19 01:14:54;;;;;;;23.52;3.65;;;10.30;88.30;;;;;;5114205;28;20024;-38
2022/09/19 01:17:51;;;;;;;7.07;1.73;;;10.40;88.40;;;;;;5113978;28;20031;-38
2022/09/19 01:20:56;;;;;;;13.60;2.67;;;10.40;88.30;;;;;;5105198;28;20043;-41
2022/09/19 01:23:25;;;;;;;11.45;1.77;;;10.40;88.30;;;;;;5114236;28;20030;-38
2022/09/19 01:25:56;;;;;;;12.25;1.80;;;10.50;88.30;;;;;;5114091;28;20024;-38
2022/09/19 01:28:25;;;;;;;10.45;1.80;;;10.60;88.10;;;;;;5114525;28;20513;-38
2022/09/19 01:31:19;;;;;;;14.10;2.50;;;10.50;88.10;;;;;;5114007;28;20501;-38
2022/09/19 01:34:02;;;;;;;16.13;1.98;;;10.50;88.20;;;;;;5113998;28;20073;-38
2022/09/19 01:36:46;;;;;;;10.13;2.03;;;10.50;88.30;;;;;;5114419;28;20103;-37
2022/09/19 01:39:17;;;;;;;19.77;3.55;;;10.40;88.50;;;;;;5114849;28;20526;-38
2022/09/19 01:41:51;;;;;;;9.45;2.15;;;10.30;88.70;;;;;;5113070;28;20024;-37
2022/09/19 01:44:18;;;;;;;11.25;2.03;;;10.30;89.10;;;;;;5114021;28;20388;-38
2022/09/19 01:47:06;;;;;;;9.50;2.63;;;10.20;89.30;;;;;;5114149;28;20066;-38
2022/09/19 01:49:57;;;;;;;14.00;2.28;;;10.10;89.60;;;;;;5114314;28;20441;-38
2022/09/19 01:52:40;;;;;;;11.18;1.70;;;10.10;89.80;;;;;;5113594;28;20418;-38
2022/09/19 01:55:39;;;;;;;14.02;1.98;;;10.00;89.90;;;;;;5114108;28;20152;-37
2022/09/19 01:58:20;;;;;;;18.73;2.20;;;10.00;90.00;;;;;;5113743;28;20072;-37
2022/09/19 02:01:25;;;;;;;9.38;1.75;;;9.90;90.20;;;;;;5112228;28;20070;-37
2022/09/19 02:04:03;;;;;;;18.35;3.05;;;10.00;90.10;;;;;;5104297;28;20035;-37
2022/09/19 02:06:32;;;;;;;24.48;2.78;;;10.00;90.00;;;;;;5113657;28;20024;-37
2022/09/19 02:09:17;;;;;;;7.55;1.70;;;10.00;90.00;;;;;;5113340;28;20057;-37
2022/09/19 02:11:43;;;;;;;24.38;2.25;;;10.10;89.80;;;;;;5113444;28;20084;-38
2022/09/19 02:14:19;;;;;;;19.50;3.70;;;10.10;89.70;;;;;;5114455;28;20020;-37
2022/09/19 02:16:50;;;;;;;10.30;1.92;;;10.10;89.70;;;;;;5117049;28;20023;-37
2022/09/19 02:19:28;;;;;;;12.98;3.22;;;10.10;89.60;;;;;;5116990;28;20030;-37
2022/09/19 02:22:04;;;;;;;27.00;2.80;;;10.10;89.60;;;;;;5117074;28;20020;-38
2022/09/19 02:24:33;;;;;;;18.92;3.42;;;10.10;89.50;;;;;;5117148;28;20395;-37
2022/09/19 02:27:08;;;;;;;14.35;2.08;;;10.10;89.60;;;;;;5117049;28;20020;-37
2022/09/19 02:29:37;;;;;;;14.32;1.88;;;10.10;89.50;;;;;;5116961;28;20016;-37
2022/09/19 02:32:03;;;;;;;18.42;2.40;;;10.10;89.60;;;;;;5116914;28;20016;-38
2022/09/19 02:34:29;;;;;;;11.23;2.70;;;10.10;89.50;;;;;;5115265;28;20024;-38
2022/09/19 02:37:12;;;;;;;12.15;1.85;;;10.00;89.70;;;;;;5115200;28;20302;-38
2022/09/19 02:39:55;;;;;;;15.43;1.92;;;10.00;89.70;;;;;;5116482;28;20028;-38
2022/09/19 02:42:35;;;;;;;12.40;2.35;;;10.00;89.90;;;;;;5116467;28;20039;-38
2022/09/19 02:45:17;;;;;;;17.13;2.83;;;9.90;90.00;;;;;;5116573;28;20032;-38
2022/09/19 02:47:55;;;;;;;17.23;2.35;;;9.90;89.90;;;;;;5116514;28;20027;-38
2022/09/19 02:51:00;;;;;;;13.27;3.20;;;9.90;89.80;;;;;;5116594;28;20023;-41
2022/09/19 02:53:31;;;;;;;12.95;2.25;;;10.00;89.90;;;;;;5073161;28;20045;-38
2022/09/19 02:56:01;;;;;;;11.38;2.70;;;10.00;89.80;;;;;;5110376;28;20036;-39
2022/09/19 02:58:29;;;;;;;;;;;10.10;89.60;;;;;;5116921;28;20110;-38
2022/09/19 03:01:02;;;;;;;12.07;2.13;;;10.10;89.40;;;;;;5116415;28;20303;-39
2022/09/19 03:06:24;;;;;;;16.67;2.53;;;10.30;89.20;;;;;;5116633;28;20531;-38
2022/09/19 03:08:52;;;;;;;13.10;2.03;;;10.20;89.40;;;;;;5116119;28;20382;-38
2022/09/19 03:11:23;;;;;;;6.28;2.00;;;10.20;89.60;;;;;;5116015;28;20030;-38
2022/09/19 03:13:50;;;;;;;8.98;2.30;;;10.20;89.80;;;;;;5116144;28;20024;-39
2022/09/19 03:16:26;;;;;;;20.92;2.45;;;10.20;89.70;;;;;;5116233;27;20034;-39
2022/09/19 03:18:57;;;;;;;26.35;2.72;;;10.30;89.70;;;;;;5114679;28;20062;-38
2022/09/19 03:21:24;;;;;;;;;;;10.30;89.60;;;;;;5116520;28;20012;-38
2022/09/19 03:23:52;;;;;;;12.30;2.75;;;10.30;89.50;;;;;;5116304;28;20347;-39
2022/09/19 03:26:20;;;;;;;15.85;3.30;;;10.30;89.60;;;;;;5115464;28;20024;-38
2022/09/19 03:28:46;;;;;;;19.50;3.30;;;10.30;89.70;;;;;;5116186;28;20058;-39
2022/09/19 03:31:12;;;;;;;13.25;3.10;;;10.30;89.60;;;;;;5116198;28;20027;-39
2022/09/19 03:33:39;;;;;;;17.27;2.33;;;10.30;89.50;;;;;;5115764;28;20031;-39
2022/09/19 03:36:08;;;;;;;16.20;2.58;;;10.40;89.40;;;;;;5116084;27;20028;-39
2022/09/19 03:38:44;;;;;;;13.10;2.17;;;10.40;89.40;;;;;;5116341;28;20051;-38
2022/09/19 03:41:19;;;;;;;14.70;3.22;;;10.40;89.50;;;;;;5115709;28;20020;-38
2022/09/19 03:43:45;;;;;;;18.08;2.55;;;10.40;89.50;;;;;;5116129;28;20028;-39
2022/09/19 03:46:13;;;;;;;18.30;2.40;;;10.40;89.50;;;;;;5115594;28;20031;-38
2022/09/19 03:48:40;;;;;;;8.70;2.85;;;10.30;89.50;;;;;;5115538;28;20024;-38
2022/09/19 03:51:06;;;;;;;12.63;2.78;;;10.30;89.60;;;;;;5115777;27;20066;-38
2022/09/19 03:53:33;;;;;;;17.05;2.60;;;10.30;89.70;;;;;;5115341;28;20054;-38
2022/09/19 03:56:00;;;;;;;5.18;2.17;;;10.30;89.70;;;;;;5115442;28;20023;-38
2022/09/19 03:58:26;;;;;;;10.27;2.45;;;10.30;89.70;;;;;;5115350;28;20024;-38
2022/09/19 04:00:52;;;;;;;12.00;2.03;;;10.30;89.50;;;;;;5115627;28;20039;-39
2022/09/19 04:03:18;;;;;;;18.10;2.38;;;10.40;89.40;;;;;;5115348;28;20157;-38
2022/09/19 04:05:45;;;;;;;12.45;2.05;;;10.40;89.40;;;;;;5115223;27;20085;-38
2022/09/19 04:08:11;;;;;;;14.57;2.53;;;10.50;89.30;;;;;;5115189;28;20023;-38
2022/09/19 04:10:37;;;;;;;14.38;2.00;;;10.50;89.00;;;;;;5115358;28;20085;-38
2022/09/19 04:13:03;;;;;;;15.15;1.88;;;10.60;88.90;;;;;;5115061;28;20028;-38
2022/09/19 04:15:28;;;;;;;14.80;2.08;;;10.60;88.60;;;;;;5113700;28;20024;-39
2022/09/19 04:17:54;;;;;;;15.82;2.97;;;10.70;88.60;;;;;;5115300;28;20020;-39
2022/09/19 04:20:21;;;;;;;19.13;4.20;;;10.70;88.60;;;;;;5115051;28;20030;-39
2022/09/19 04:22:47;;;;;;;11.85;2.50;;;10.60;88.70;;;;;;5114880;28;20024;-38
2022/09/19 04:25:15;;;;;;;17.90;2.85;;;10.60;88.50;;;;;;5115155;28;20019;-42
2022/09/19 04:27:40;;;;;;;14.25;1.90;;;10.70;88.60;;;;;;5115020;28;20122;-38
2022/09/19 04:30:07;;;;;;;13.43;2.13;;;10.70;88.60;;;;;;5113540;28;20065;-39
2022/09/19 04:32:34;;;;;;;10.18;2.58;;;10.70;88.50;;;;;;5114522;28;20024;-38
2022/09/19 04:34:59;;;;;;;14.65;3.33;;;10.70;88.60;;;;;;5114604;28;20107;-38
2022/09/19 04:37:26;;;;;;;13.90;3.00;;;10.70;88.40;;;;;;5114382;28;20080;-40
2022/09/19 04:39:52;;;;;;;17.02;2.63;;;10.70;88.50;;;;;;5114491;28;20023;-44
2022/09/19 04:42:18;;;;;;;18.33;2.25;;;10.70;88.60;;;;;;5113912;28;20036;-38
2022/09/19 04:44:44;;;;;;;14.90;2.75;;;10.70;88.70;;;;;;5114725;28;20015;-38
2022/09/19 04:47:10;;;;;;;21.83;3.20;;;10.70;88.80;;;;;;5114618;28;20031;-38
2022/09/19 04:49:39;;;;;;;9.05;2.00;;;10.70;88.70;;;;;;5114944;28;20104;-39
2022/09/19 04:52:12;;;;;;;15.60;3.70;;;10.80;88.60;;;;;;5114147;28;20056;-38
2022/09/19 04:54:38;;;;;;;5.03;2.10;;;10.80;88.50;;;;;;5114624;28;20024;-38
2022/09/19 04:57:05;;;;;;;13.30;2.75;;;10.80;88.30;;;;;;5114333;28;20031;-38
2022/09/19 17:54:03;;;;;;;5.22;1.52;;;11.60;91.00;;;;;;5132189;27;20623;-38
2022/09/19 17:56:29;;;;;;;3.42;1.58;;;11.70;91.20;;;;;;5131736;28;20037;-38
2022/09/19 17:58:56;;;;;;;4.03;1.98;;;11.80;91.10;;;;;;5131249;28;20098;-38
2022/09/19 18:04:09;;;;;;;11.75;2.53;;;11.90;90.90;;;;;;5131666;28;20030;-37
2022/09/19 18:06:36;;;;;;;1.38;1.10;;;11.80;90.60;;;;;;5131298;28;20032;-38
2022/09/19 18:09:08;;;;;;;9.55;1.42;;;11.80;90.60;;;;;;5130067;28;20026;-38
2022/09/19 18:11:35;;;;;;;3.15;1.83;;;11.80;90.60;;;;;;5132097;28;20035;-39
2022/09/19 18:14:03;;;;;;;8.85;1.95;;;11.80;90.70;;;;;;5131385;28;20043;-40
2022/09/19 18:16:31;;;;;;;6.28;1.80;;;11.80;90.60;;;;;;5130898;28;20028;-38
2022/09/19 18:18:57;;;;;;;3.63;2.17;;;11.80;90.60;;;;;;5130783;28;20145;-38
2022/09/19 18:21:23;;;;;;;7.80;2.50;;;11.80;90.50;;;;;;5131107;28;20023;-38
2022/09/19 18:23:49;;;;;;;7.15;3.35;;;11.80;90.20;;;;;;5130728;28;20022;-38
2022/09/19 18:26:18;;;;;;;9.00;3.20;;;11.80;90.20;;;;;;5132990;28;20099;-38
2022/09/19 18:28:46;;;;;;;7.13;2.42;;;11.80;90.30;;;;;;5113345;28;20031;-37
2022/09/19 18:31:13;;;;;;;6.93;3.25;;;11.80;90.20;;;;;;5130814;28;20070;-39
2022/09/19 18:33:43;;;;;;;14.23;3.13;;;11.80;90.30;;;;;;5130555;28;20328;-39
2022/09/19 18:36:13;;;;;;;3.73;2.07;;;11.80;90.10;;;;;;5130658;28;20110;-38
2022/09/19 18:38:39;;;;;;;6.45;3.05;;;11.80;90.00;;;;;;5130426;28;20673;-38
2022/09/19 18:41:06;;;;;;;8.40;3.38;;;11.90;90.00;;;;;;5128459;28;20052;-38
2022/09/19 18:43:33;;;;;;;16.65;4.43;;;11.80;90.10;;;;;;5130080;28;20098;-39
2022/09/19 18:46:11;;;;;;;9.85;2.95;;;11.80;90.30;;;;;;5130341;28;20065;-37
2022/09/19 18:48:41;;;;;;;6.22;2.22;;;11.90;90.40;;;;;;5130396;27;20047;-38
2022/09/19 18:51:12;;;;;;;7.90;2.40;;;11.90;90.00;;;;;;5129953;28;20021;-38
2022/09/19 18:53:42;;;;;;;27.70;4.70;;;12.00;90.00;;;;;;5130221;27;20039;-39
2022/09/19 18:56:11;;;;;;;13.15;4.05;;;12.00;89.80;;;;;;5130405;27;20106;-39
2022/09/19 18:58:38;;;;;;;4.70;2.23;;;12.10;89.40;;;;;;5130482;27;20383;-40
2022/09/19 19:01:07;;;;;;;7.20;2.20;;;12.10;88.70;;;;;;5130531;27;20027;-39
2022/09/19 19:03:37;;;;;;;11.88;2.40;;;12.00;88.40;;;;;;5125461;27;20031;-39
2022/09/19 19:06:09;;;;;;;12.18;2.80;;;12.10;88.10;;;;;;5116867;28;20028;-39
2022/09/19 19:08:36;;;;;;;22.98;6.00;;;12.00;87.70;;;;;;5116200;28;20027;-38
2022/09/19 19:11:07;;;;;;;9.35;2.17;;;12.00;87.30;;;;;;5097750;28;20034;-39
2022/09/19 19:13:33;;;;;;;;;;;12.00;87.30;;;;;;5116092;28;20396;-38
2022/09/19 19:16:04;;;;;;;9.35;2.05;;;12.00;87.00;;;;;;5115907;28;19904;-38
2022/09/19 19:18:33;;;;;;;9.13;1.92;;;11.90;87.00;;;;;;5114411;28;20027;-40
2022/09/19 19:21:15;;;;;;;6.43;2.13;;;12.00;86.60;;;;;;5115636;28;20041;-39
2022/09/19 19:23:41;;;;;;;6.80;1.83;;;11.90;86.30;;;;;;5115799;28;20031;-39
2022/09/19 19:26:08;;;;;;;16.02;2.17;;;12.00;86.00;;;;;;5115704;28;20019;-39
2022/09/19 19:28:35;;;;;;;12.75;2.53;;;12.00;86.00;;;;;;5114328;28;20483;-38
2022/09/19 19:31:01;;;;;;;14.48;2.33;;;11.90;85.30;;;;;;5115729;28;20399;-38
2022/09/19 19:33:27;;;;;;;7.32;2.08;;;11.90;85.30;;;;;;5115460;28;20497;-39
2022/09/19 19:35:58;;;;;;;3.75;1.77;;;11.90;85.50;;;;;;5115282;28;20031;-39
2022/09/19 19:38:24;;;;;;;11.95;2.00;;;11.80;85.40;;;;;;5115415;28;20027;-38
2022/09/19 19:40:55;;;;;;;11.85;1.92;;;11.80;85.60;;;;;;5115189;28;20024;-39
2022/09/19 19:43:20;;;;;;;19.55;2.70;;;11.80;85.60;;;;;;5115308;28;20059;-39
2022/09/19 19:45:47;;;;;;;17.45;3.67;;;11.80;85.30;;;;;;5115379;28;20051;-39
2022/09/19 19:48:12;;;;;;;10.60;2.03;;;11.70;85.30;;;;;;5115634;28;20028;-38
2022/09/19 19:50:38;;;;;;;8.18;1.83;;;11.70;85.60;;;;;;5115324;28;20517;-40
2022/09/19 19:53:04;;;;;;;9.95;2.00;;;11.60;85.80;;;;;;5115292;28;20059;-39
2022/09/19 19:55:32;;;;;;;6.35;2.25;;;11.50;86.10;;;;;;5115223;28;20356;-39
2022/09/19 19:57:57;;;;;;;13.77;2.25;;;11.60;86.00;;;;;;5115981;28;20019;-39
2022/09/19 20:00:23;;;;;;;8.70;1.35;;;11.60;85.60;;;;;;5115119;28;20028;-40
2022/09/19 20:02:48;;;;;;;10.77;1.73;;;11.60;85.40;;;;;;5096809;28;20062;-38
2022/09/19 20:05:14;;;;;;;7.03;2.03;;;11.60;85.20;;;;;;5114907;28;20103;-38
2022/09/19 20:07:40;;;;;;;12.35;3.13;;;11.60;85.50;;;;;;5115177;28;20417;-38
2022/09/19 20:10:06;;;;;;;6.18;1.77;;;11.60;85.70;;;;;;5115218;28;20347;-38
2022/09/19 20:12:32;;;;;;;8.00;2.00;;;11.50;85.60;;;;;;5114854;28;20467;-39
2022/09/19 20:14:57;;;;;;;8.13;2.00;;;11.50;85.90;;;;;;5114755;28;20031;-38
2022/09/19 20:17:23;;;;;;;10.18;2.15;;;11.50;86.10;;;;;;5114089;28;20019;-39
2022/09/19 20:19:48;;;;;;;9.70;3.25;;;11.40;86.00;;;;;;5115017;28;20019;-39
2022/09/19 20:22:15;;;;;;;10.35;2.25;;;11.40;86.40;;;;;;5114958;28;20035;-39
2022/09/19 20:24:40;;;;;;;3.00;1.48;;;11.40;86.40;;;;;;5115103;28;20510;-38
2022/09/19 20:27:06;;;;;;;11.85;2.33;;;11.40;86.40;;;;;;5114817;28;20024;-39
2022/09/19 20:29:32;;;;;;;8.43;1.90;;;11.40;86.30;;;;;;5114608;28;20146;-39
2022/09/19 20:32:00;;;;;;;17.95;2.28;;;11.40;86.60;;;;;;5113616;28;20027;-40
2022/09/19 20:34:25;;;;;;;16.80;2.63;;;11.40;86.80;;;;;;5113898;28;20051;-39
2022/09/19 20:36:51;;;;;;;3.45;1.38;;;11.30;87.00;;;;;;5114520;28;20439;-38
2022/09/19 20:39:17;;;;;;;7.15;1.77;;;11.30;86.70;;;;;;5114600;28;20077;-38
2022/09/19 20:41:44;;;;;;;9.50;2.30;;;11.20;86.80;;;;;;5114415;28;20103;-38
2022/09/19 20:44:10;;;;;;;14.40;2.33;;;11.10;86.90;;;;;;5114352;28;20462;-37
2022/09/19 20:46:37;;;;;;;5.18;2.40;;;11.20;86.40;;;;;;5112761;28;20463;-39
2022/09/19 20:49:07;;;;;;;9.98;1.98;;;11.10;86.10;;;;;;5114167;28;20020;-38
2022/09/19 20:51:33;;;;;;;12.88;1.85;;;11.00;85.80;;;;;;5114241;28;20055;-41
2022/09/19 20:53:58;;;;;;;12.35;1.65;;;11.10;85.70;;;;;;5113844;28;20500;-38
2022/09/19 20:56:27;;;;;;;9.43;1.67;;;11.00;85.70;;;;;;5114402;28;20030;-38
2022/09/19 20:58:58;;;;;;;6.07;1.48;;;11.00;85.40;;;;;;5114296;27;20337;-38
2022/09/19 21:01:29;;;;;;;8.75;2.25;;;10.90;85.40;;;;;;5114263;28;20073;-38
2022/09/19 21:03:54;;;;;;;11.75;1.73;;;10.80;85.40;;;;;;5114227;28;20101;-38
2022/09/19 21:06:23;;;;;;;7.15;1.30;;;10.80;85.40;;;;;;5112678;28;20055;-38
2022/09/19 21:08:49;;;;;;;4.05;1.20;;;10.80;85.50;;;;;;5113827;28;20031;-38
2022/09/19 21:11:16;;;;;;;4.95;1.40;;;10.70;85.40;;;;;;5114310;28;20023;-39
2022/09/19 21:13:46;;;;;;;10.18;1.55;;;10.80;85.40;;;;;;5113675;28;20053;-39
2022/09/19 21:16:14;;;;;;;8.48;1.40;;;10.70;85.20;;;;;;5114096;28;20024;-39
2022/09/19 21:18:43;;;;;;;7.28;1.98;;;10.70;85.40;;;;;;5113800;28;20077;-38
2022/09/19 21:21:11;;;;;;;5.28;1.13;;;10.60;85.60;;;;;;5113620;28;20020;-38
2022/09/19 21:23:44;;;;;;;5.78;2.42;;;10.50;85.70;;;;;;5113603;28;20023;-40
2022/09/19 21:26:16;;;;;;;1.73;1.10;;;10.50;85.70;;;;;;5113941;28;20046;-38
2022/09/19 21:28:43;;;;;;;9.70;2.85;;;10.50;85.80;;;;;;5112008;28;20119;-39
2022/09/19 21:31:11;;;;;;;4.35;2.13;;;10.40;86.00;;;;;;5113539;28;20036;-39
2022/09/19 21:33:37;;;;;;;6.03;1.95;;;10.40;86.00;;;;;;5111978;28;20024;-39
2022/09/19 21:36:04;;;;;;;4.35;1.35;;;10.40;85.70;;;;;;5113518;28;20030;-38
2022/09/19 21:38:30;;;;;;;5.65;1.33;;;10.40;85.60;;;;;;5113669;28;20038;-38
2022/09/19 21:41:01;;;;;;;10.35;1.88;;;10.40;85.60;;;;;;5113282;28;20065;-40
2022/09/19 21:43:29;;;;;;;6.93;2.55;;;10.30;85.70;;;;;;5112155;28;20031;-38
2022/09/19 21:46:02;;;;;;;5.40;1.65;;;10.30;86.00;;;;;;5113328;28;20035;-40
2022/09/19 21:48:31;;;;;;;5.72;1.83;;;10.30;85.90;;;;;;5113395;28;20023;-39
2022/09/19 21:50:56;;;;;;;11.15;3.35;;;10.20;86.10;;;;;;5113758;28;20020;-39
2022/09/19 21:53:22;;;;;;;10.52;2.03;;;10.20;86.30;;;;;;5111866;28;20046;-38
2022/09/19 21:55:54;;;;;;;5.13;1.27;;;10.20;86.40;;;;;;5113254;28;20081;-38
2022/09/19 21:58:20;;;;;;;12.02;2.25;;;10.10;86.50;;;;;;5113206;28;20057;-38
2022/09/19 22:00:47;;;;;;;5.63;1.70;;;10.10;86.60;;;;;;5113159;28;20027;-38
2022/09/19 22:03:16;;;;;;;11.63;2.05;;;10.10;86.60;;;;;;5113414;28;20028;-38
2022/09/19 22:05:42;;;;;;;21.23;2.30;;;10.10;86.70;;;;;;5113442;28;20038;-39
2022/09/19 22:08:09;;;;;;;11.85;1.80;;;10.00;86.90;;;;;;5113475;28;20056;-38
2022/09/19 22:10:38;;;;;;;7.78;1.95;;;10.10;87.30;;;;;;5113077;28;20028;-39
2022/09/19 22:13:04;;;;;;;8.13;2.78;;;10.00;87.20;;;;;;5113486;28;20035;-38
2022/09/19 22:15:30;;;;;;;11.02;1.90;;;10.00;87.40;;;;;;5113531;28;20102;-38
2022/09/19 22:17:56;;;;;;;5.47;1.60;;;9.80;87.60;;;;;;5113522;28;20024;-37
2022/09/19 22:20:22;;;;;;;7.38;1.48;;;9.80;88.20;;;;;;5113547;28;20023;-38
2022/09/19 22:22:47;;;;;;;12.40;2.80;;;9.60;88.90;;;;;;5113280;28;20020;-39
2022/09/19 22:25:13;;;;;;;11.45;1.70;;;9.70;89.10;;;;;;5113473;28;20053;-39
2022/09/19 22:27:40;;;;;;;7.38;2.13;;;9.60;89.10;;;;;;5111801;28;20028;-39
2022/09/19 22:30:06;;;;;;;11.23;2.72;;;9.50;89.50;;;;;;5113459;28;20073;-38
2022/09/19 22:32:32;;;;;;;9.32;2.33;;;9.50;89.50;;;;;;5112948;28;20023;-38
2022/09/19 22:34:57;;;;;;;8.15;3.17;;;9.50;89.70;;;;;;5113009;28;20023;-38
2022/09/19 22:37:23;;;;;;;14.05;3.58;;;9.50;89.80;;;;;;5112977;28;20467;-38
2022/09/19 22:39:49;;;;;;;12.45;2.65;;;9.50;89.70;;;;;;5113627;28;20016;-37
2022/09/19 22:42:14;;;;;;;11.00;1.63;;;9.50;89.80;;;;;;5117089;28;20028;-39
2022/09/19 22:44:40;;;;;;;5.63;2.33;;;9.30;89.80;;;;;;5116695;28;20503;-40
2022/09/19 22:47:06;;;;;;;12.25;2.63;;;9.30;90.00;;;;;;5116515;28;20024;-38
2022/09/19 22:49:31;;;;;;;9.15;2.35;;;9.30;90.20;;;;;;5116531;28;20032;-39
2022/09/19 22:51:57;;;;;;;4.80;1.80;;;9.20;90.40;;;;;;5116306;28;20126;-38
2022/09/19 22:54:23;;;;;;;14.10;2.65;;;9.20;90.50;;;;;;5116590;28;20420;-38
2022/09/19 22:56:49;;;;;;;6.47;2.20;;;9.20;90.70;;;;;;5116626;28;20020;-39
2022/09/19 22:59:15;;;;;;;10.95;3.80;;;9.20;90.80;;;;;;5116627;28;20020;-39
2022/09/19 23:01:42;;;;;;;12.85;4.13;;;9.30;90.80;;;;;;5116449;28;20471;-38
2022/09/19 23:04:07;;;;;;;8.75;1.83;;;9.30;90.60;;;;;;5115200;28;20027;-38
2022/09/19 23:06:38;;;;;;;5.43;2.22;;;9.30;90.80;;;;;;5116650;28;20093;-37
2022/09/19 23:09:13;;;;;;;9.75;2.63;;;9.30;90.80;;;;;;5116296;27;20065;-39
2022/09/19 23:11:39;;;;;;;7.15;2.22;;;9.30;90.80;;;;;;5116833;28;20028;-40
2022/09/19 23:14:09;;;;;;;9.18;2.83;;;9.30;90.80;;;;;;5116351;28;20062;-38
2022/09/19 23:16:39;;;;;;;16.38;2.40;;;9.30;90.80;;;;;;5116349;28;20028;-39
2022/09/19 23:19:09;;;;;;;13.65;2.22;;;9.30;90.70;;;;;;5116099;28;20032;-39
2022/09/19 23:21:36;;;;;;;5.40;2.40;;;9.30;90.80;;;;;;5116065;28;20028;-38
2022/09/19 23:24:03;;;;;;;16.73;2.67;;;9.30;90.70;;;;;;5115995;28;20272;-38
2022/09/19 23:26:29;;;;;;;9.20;2.05;;;9.30;90.80;;;;;;5115964;27;20030;-37
2022/09/19 23:28:54;;;;;;;8.73;1.88;;;9.40;90.80;;;;;;5116144;28;20114;-38
2022/09/19 23:31:20;;;;;;;7.85;1.48;;;9.30;90.90;;;;;;5116439;28;20050;-39
2022/09/19 23:33:47;;;;;;;11.63;2.95;;;9.30;91.00;;;;;;5116329;28;20032;-39
2022/09/19 23:36:16;;;;;;;4.20;1.95;;;9.30;91.00;;;;;;5114677;28;20161;-40
2022/09/19 23:38:43;;;;;;;5.97;1.92;;;9.30;91.10;;;;;;5116475;28;20020;-38
2022/09/19 23:41:10;;;;;;;5.45;1.98;;;9.30;91.10;;;;;;5116305;28;20384;-37
2022/09/19 23:43:37;;;;;;;7.15;1.90;;;9.30;91.20;;;;;;5116163;28;20370;-37
2022/09/19 23:46:05;;;;;;;11.32;2.42;;;9.30;91.30;;;;;;5115498;28;20099;-38
2022/09/19 23:48:31;;;;;;;8.23;2.25;;;9.20;91.30;;;;;;5115389;28;20141;-37
2022/09/19 23:50:57;;;;;;;11.52;2.22;;;9.30;91.50;;;;;;5115228;28;20367;-37
2022/09/19 23:53:25;;;;;;;7.63;2.00;;;9.30;91.50;;;;;;5115257;28;20130;-38
2022/09/19 23:55:51;;;;;;;14.18;2.38;;;9.30;91.50;;;;;;5115473;28;20066;-40
2022/09/19 23:58:17;;;;;;;8.63;1.83;;;9.30;91.60;;;;;;5115342;28;20034;-37
